sensor_id;sensor_type;location;lat;lon;timestamp;pressure;altitude;pressure_sealevel;temperature;humidity
12636;BME280;6383;50.830;7.210;2023-04-02T00:00:16;99906.31;;;11.71;89.25
12636;BME280;6383;50.830;7.210;2023-04-02T00:02:57;99904.69;;;11.70;89.66
12636;BME280;6383;50.830;7.210;2023-04-02T00:05:42;99910.63;;;11.72;89.82
12636;BME280;6383;50.830;7.210;2023-04-02T00:08:26;99910.28;;;11.73;89.56
12636;BME280;6383;50.830;7.210;2023-04-02T00:10:58;99910.28;;;11.73;89.77
12636;BME280;6383;50.830;7.210;2023-04-02T00:13:31;99915.41;;;11.75;89.91
12636;BME280;6383;50.830;7.210;2023-04-02T00:16:02;99920.88;;;11.75;89.98
12636;BME280;6383;50.830;7.210;2023-04-02T00:18:38;99920.25;;;11.78;90.12
12636;BME280;6383;50.830;7.210;2023-04-02T00:21:12;99925.72;;;11.78;89.80
12636;BME280;6383;50.830;7.210;2023-04-02T00:23:43;99931.16;;;11.78;89.51
12636;BME280;6383;50.830;7.210;2023-04-02T00:26:36;99934.03;;;11.81;89.55
12636;BME280;6383;50.830;7.210;2023-04-02T00:29:08;99947.19;;;11.79;89.48
12636;BME280;6383;50.830;7.210;2023-04-02T00:31:47;99942.53;;;11.80;90.00
12636;BME280;6383;50.830;7.210;2023-04-02T00:34:20;99945.28;;;11.80;89.69
12636;BME280;6383;50.830;7.210;2023-04-02T00:36:55;99955.84;;;11.81;89.54
12636;BME280;6383;50.830;7.210;2023-04-02T00:39:26;99955.06;;;11.81;89.63
12636;BME280;6383;50.830;7.210;2023-04-02T00:41:59;99960.50;;;11.81;89.78
12636;BME280;6383;50.830;7.210;2023-04-02T00:44:31;99964.84;;;11.82;89.93
12636;BME280;6383;50.830;7.210;2023-04-02T00:47:13;99969.97;;;11.83;89.57
12636;BME280;6383;50.830;7.210;2023-04-02T00:49:44;99965.31;;;11.84;89.63
12636;BME280;6383;50.830;7.210;2023-04-02T00:52:16;99973.50;;;11.84;89.32
12636;BME280;6383;50.830;7.210;2023-04-02T00:54:49;99977.03;;;11.84;89.99
12636;BME280;6383;50.830;7.210;2023-04-02T00:57:24;99982.47;;;11.84;89.22
12636;BME280;6383;50.830;7.210;2023-04-02T00:59:57;99977.03;;;11.84;89.69
12636;BME280;6383;50.830;7.210;2023-04-02T01:02:29;99983.28;;;11.85;89.97
12636;BME280;6383;50.830;7.210;2023-04-02T01:05:00;99980.56;;;11.85;90.07
12636;BME280;6383;50.830;7.210;2023-04-02T01:07:49;99987.63;;;11.86;89.92
12636;BME280;6383;50.830;7.210;2023-04-02T01:10:33;99986.00;;;11.85;89.74
12636;BME280;6383;50.830;7.210;2023-04-02T01:13:15;99988.75;;;11.85;90.32
12636;BME280;6383;50.830;7.210;2023-04-02T01:15:51;99999.47;;;11.90;89.78
12636;BME280;6383;50.830;7.210;2023-04-02T01:18:48;100000.09;;;11.95;89.33
12636;BME280;6383;50.830;7.210;2023-04-02T01:21:36;100000.75;;;11.92;88.91
12636;BME280;6383;50.830;7.210;2023-04-02T01:24:11;100007.47;;;11.95;89.20
12636;BME280;6383;50.830;7.210;2023-04-02T01:26:52;100008.28;;;11.95;89.14
12636;BME280;6383;50.830;7.210;2023-04-02T01:29:27;100007.00;;;11.93;89.10
12636;BME280;6383;50.830;7.210;2023-04-02T01:31:59;100020.31;;;11.94;89.12
12636;BME280;6383;50.830;7.210;2023-04-02T01:34:30;100021.91;;;11.95;89.78
12636;BME280;6383;50.830;7.210;2023-04-02T01:37:07;100027.06;;;11.97;89.57
12636;BME280;6383;50.830;7.210;2023-04-02T01:39:52;100029.78;;;11.97;89.03
12636;BME280;6383;50.830;7.210;2023-04-02T01:42:28;100029.94;;;11.92;89.02
12636;BME280;6383;50.830;7.210;2023-04-02T01:45:03;100035.88;;;11.94;89.57
12636;BME280;6383;50.830;7.210;2023-04-02T01:47:31;100039.41;;;11.94;89.18
12636;BME280;6383;50.830;7.210;2023-04-02T01:50:03;100037.97;;;11.97;89.58
12636;BME280;6383;50.830;7.210;2023-04-02T01:52:37;100053.22;;;11.98;88.92
12636;BME280;6383;50.830;7.210;2023-04-02T01:55:08;100051.28;;;11.98;88.68
12636;BME280;6383;50.830;7.210;2023-04-02T01:57:41;100054.16;;;12.02;88.76
12636;BME280;6383;50.830;7.210;2023-04-02T02:00:14;100053.69;;;12.00;88.57
12636;BME280;6383;50.830;7.210;2023-04-02T02:02:46;100065.25;;;11.97;89.04
12636;BME280;6383;50.830;7.210;2023-04-02T02:05:19;100071.19;;;11.99;89.37
12636;BME280;6383;50.830;7.210;2023-04-02T02:07:51;100075.03;;;11.98;89.07
12636;BME280;6383;50.830;7.210;2023-04-02T02:10:23;100082.22;;;11.94;89.26
12636;BME280;6383;50.830;7.210;2023-04-02T02:12:53;100084.00;;;11.90;89.07
12636;BME280;6383;50.830;7.210;2023-04-02T02:15:25;100092.97;;;11.90;89.91
12636;BME280;6383;50.830;7.210;2023-04-02T02:17:58;100098.75;;;11.89;89.51
12636;BME280;6383;50.830;7.210;2023-04-02T02:20:29;100093.63;;;11.87;89.48
12636;BME280;6383;50.830;7.210;2023-04-02T02:23:00;100099.88;;;11.88;88.83
12636;BME280;6383;50.830;7.210;2023-04-02T02:25:32;100103.75;;;11.87;89.99
12636;BME280;6383;50.830;7.210;2023-04-02T02:28:05;100110.31;;;11.86;89.68
12636;BME280;6383;50.830;7.210;2023-04-02T02:30:37;100111.13;;;11.86;89.47
12636;BME280;6383;50.830;7.210;2023-04-02T02:33:13;100122.34;;;11.85;89.81
12636;BME280;6383;50.830;7.210;2023-04-02T02:35:50;100129.41;;;11.86;89.62
12636;BME280;6383;50.830;7.210;2023-04-02T02:38:39;100136.78;;;11.85;89.18
12636;BME280;6383;50.830;7.210;2023-04-02T02:41:15;100132.75;;;11.83;90.11
12636;BME280;6383;50.830;7.210;2023-04-02T02:43:52;100140.94;;;11.83;89.73
12636;BME280;6383;50.830;7.210;2023-04-02T02:46:26;100148.81;;;11.84;90.06
12636;BME280;6383;50.830;7.210;2023-04-02T02:48:57;100147.19;;;11.83;89.25
12636;BME280;6383;50.830;7.210;2023-04-02T02:51:29;100157.78;;;11.85;89.59
12636;BME280;6383;50.830;7.210;2023-04-02T02:54:06;100165.16;;;11.84;89.31
12636;BME280;6383;50.830;7.210;2023-04-02T02:56:38;100161.63;;;11.84;89.24
12636;BME280;6383;50.830;7.210;2023-04-02T02:59:09;100173.34;;;11.84;89.19
12636;BME280;6383;50.830;7.210;2023-04-02T03:01:42;100179.59;;;11.85;89.74
12636;BME280;6383;50.830;7.210;2023-04-02T03:04:12;100182.00;;;11.86;89.33
12636;BME280;6383;50.830;7.210;2023-04-02T03:06:46;100182.00;;;11.86;89.41
12636;BME280;6383;50.830;7.210;2023-04-02T03:09:22;100185.06;;;11.85;88.46
12636;BME280;6383;50.830;7.210;2023-04-02T03:12:00;100190.66;;;11.80;88.70
12636;BME280;6383;50.830;7.210;2023-04-02T03:14:33;100199.19;;;11.87;88.44
12636;BME280;6383;50.830;7.210;2023-04-02T03:17:09;100201.41;;;11.85;87.32
12636;BME280;6383;50.830;7.210;2023-04-02T03:19:43;100210.84;;;11.79;87.19
12636;BME280;6383;50.830;7.210;2023-04-02T03:22:18;100214.03;;;11.72;87.54
12636;BME280;6383;50.830;7.210;2023-04-02T03:24:56;100217.69;;;11.68;88.11
12636;BME280;6383;50.830;7.210;2023-04-02T03:27:27;100226.84;;;11.72;87.29
12636;BME280;6383;50.830;7.210;2023-04-02T03:30:04;100221.03;;;11.64;87.05
12636;BME280;6383;50.830;7.210;2023-04-02T03:32:41;100230.84;;;11.65;86.96
12636;BME280;6383;50.830;7.210;2023-04-02T03:35:18;100231.75;;;11.52;87.08
12636;BME280;6383;50.830;7.210;2023-04-02T03:37:53;100240.53;;;11.49;87.68
12636;BME280;6383;50.830;7.210;2023-04-02T03:40:27;100240.22;;;11.51;87.42
12636;BME280;6383;50.830;7.210;2023-04-02T03:43:01;100248.72;;;11.49;87.23
12636;BME280;6383;50.830;7.210;2023-04-02T03:45:35;100253.38;;;11.49;88.02
12636;BME280;6383;50.830;7.210;2023-04-02T03:48:11;100260.72;;;11.48;87.83
12636;BME280;6383;50.830;7.210;2023-04-02T03:50:47;100259.63;;;11.49;87.58
12636;BME280;6383;50.830;7.210;2023-04-02T03:53:21;100271.31;;;11.50;87.42
12636;BME280;6383;50.830;7.210;2023-04-02T03:55:51;100266.19;;;11.48;87.42
12636;BME280;6383;50.830;7.210;2023-04-02T03:58:24;100271.16;;;11.46;87.18
12636;BME280;6383;50.830;7.210;2023-04-02T04:01:00;100278.03;;;11.44;87.01
12636;BME280;6383;50.830;7.210;2023-04-02T04:03:39;100279.13;;;11.43;86.76
12636;BME280;6383;50.830;7.210;2023-04-02T04:06:14;100291.19;;;11.42;87.40
12636;BME280;6383;50.830;7.210;2023-04-02T04:08:48;100294.53;;;11.39;86.36
12636;BME280;6383;50.830;7.210;2023-04-02T04:11:22;100302.19;;;11.37;86.96
12636;BME280;6383;50.830;7.210;2023-04-02T04:13:58;100308.56;;;11.32;86.34
12636;BME280;6383;50.830;7.210;2023-04-02T04:16:28;100313.03;;;11.28;85.61
12636;BME280;6383;50.830;7.210;2023-04-02T04:19:05;100313.47;;;11.21;85.81
12636;BME280;6383;50.830;7.210;2023-04-02T04:21:39;100325.19;;;11.22;85.96
12636;BME280;6383;50.830;7.210;2023-04-02T04:24:16;100325.50;;;11.20;85.92
12636;BME280;6383;50.830;7.210;2023-04-02T04:26:52;100329.63;;;11.18;85.32
12636;BME280;6383;50.830;7.210;2023-04-02T04:29:32;100340.34;;;11.14;85.29
12636;BME280;6383;50.830;7.210;2023-04-02T04:32:13;100348.84;;;11.13;84.81
12636;BME280;6383;50.830;7.210;2023-04-02T04:34:47;100355.41;;;11.12;85.40
12636;BME280;6383;50.830;7.210;2023-04-02T04:37:23;100358.94;;;11.12;84.76
12636;BME280;6383;50.830;7.210;2023-04-02T04:39:57;100364.38;;;11.12;84.72
12636;BME280;6383;50.830;7.210;2023-04-02T04:42:32;100367.09;;;11.12;85.04
12636;BME280;6383;50.830;7.210;2023-04-02T04:45:08;100372.84;;;11.11;84.65
12636;BME280;6383;50.830;7.210;2023-04-02T04:47:47;100373.97;;;11.10;84.70
12636;BME280;6383;50.830;7.210;2023-04-02T04:50:30;100387.09;;;11.08;84.25
12636;BME280;6383;50.830;7.210;2023-04-02T04:53:04;100388.19;;;11.07;83.98
12636;BME280;6383;50.830;7.210;2023-04-02T04:55:37;100400.19;;;11.06;83.64
12636;BME280;6383;50.830;7.210;2023-04-02T04:58:16;100407.25;;;11.07;83.79
12636;BME280;6383;50.830;7.210;2023-04-02T05:00:57;100406.75;;;11.05;83.96
12636;BME280;6383;50.830;7.210;2023-04-02T05:03:32;100415.84;;;11.00;83.65
12636;BME280;6383;50.830;7.210;2023-04-02T05:06:08;100423.53;;;10.98;83.72
12636;BME280;6383;50.830;7.210;2023-04-02T05:08:42;100423.03;;;10.96;83.59
12636;BME280;6383;50.830;7.210;2023-04-02T05:11:18;100434.22;;;10.94;83.90
12636;BME280;6383;50.830;7.210;2023-04-02T05:13:51;100444.09;;;10.90;83.34
12636;BME280;6383;50.830;7.210;2023-04-02T05:16:25;100446.31;;;10.88;83.36
12636;BME280;6383;50.830;7.210;2023-04-02T05:19:01;100462.16;;;10.86;83.23
12636;BME280;6383;50.830;7.210;2023-04-02T05:21:38;100458.44;;;10.82;82.80
12636;BME280;6383;50.830;7.210;2023-04-02T05:24:32;100461.47;;;10.81;82.76
12636;BME280;6383;50.830;7.210;2023-04-02T05:30:44;100483.03;;;10.77;82.85
12636;BME280;6383;50.830;7.210;2023-04-02T05:33:19;100483.94;;;10.73;83.36
12636;BME280;6383;50.830;7.210;2023-04-02T05:35:55;100487.47;;;10.73;82.79
12636;BME280;6383;50.830;7.210;2023-04-02T05:38:35;100489.38;;;10.73;83.37
12636;BME280;6383;50.830;7.210;2023-04-02T05:41:07;100501.09;;;10.73;82.29
12636;BME280;6383;50.830;7.210;2023-04-02T05:43:45;100504.31;;;10.75;83.00
12636;BME280;6383;50.830;7.210;2023-04-02T05:46:18;100509.47;;;10.77;83.16
12636;BME280;6383;50.830;7.210;2023-04-02T05:48:53;100514.09;;;10.76;82.27
12636;BME280;6383;50.830;7.210;2023-04-02T05:51:27;100517.31;;;10.78;83.21
12636;BME280;6383;50.830;7.210;2023-04-02T05:54:00;100523.88;;;10.77;81.99
12636;BME280;6383;50.830;7.210;2023-04-02T05:56:33;100536.78;;;10.72;82.43
12636;BME280;6383;50.830;7.210;2023-04-02T05:59:06;100537.88;;;10.71;82.12
12636;BME280;6383;50.830;7.210;2023-04-02T06:01:39;100549.38;;;10.68;82.42
12636;BME280;6383;50.830;7.210;2023-04-02T06:04:18;100549.69;;;10.66;82.00
12636;BME280;6383;50.830;7.210;2023-04-02T06:06:57;100554.50;;;10.69;82.76
12636;BME280;6383;50.830;7.210;2023-04-02T06:09:36;100561.56;;;10.70;82.61
12636;BME280;6383;50.830;7.210;2023-04-02T06:12:18;100570.53;;;10.71;82.30
12636;BME280;6383;50.830;7.210;2023-04-02T06:14:50;100565.09;;;10.71;81.33
12636;BME280;6383;50.830;7.210;2023-04-02T06:17:20;100584.44;;;10.69;81.74
12636;BME280;6383;50.830;7.210;2023-04-02T06:19:50;100589.88;;;10.69;82.10
12636;BME280;6383;50.830;7.210;2023-04-02T06:22:23;100597.25;;;10.69;81.45
12636;BME280;6383;50.830;7.210;2023-04-02T06:24:58;100600.59;;;10.66;81.56
12636;BME280;6383;50.830;7.210;2023-04-02T06:27:29;100611.47;;;10.66;81.39
12636;BME280;6383;50.830;7.210;2023-04-02T06:30:03;100611.78;;;10.64;81.26
12636;BME280;6383;50.830;7.210;2023-04-02T06:32:32;100615.91;;;10.62;81.46
12636;BME280;6383;50.830;7.210;2023-04-02T06:35:01;100631.41;;;10.61;80.97
12636;BME280;6383;50.830;7.210;2023-04-02T06:37:33;100635.25;;;10.60;80.48
12636;BME280;6383;50.830;7.210;2023-04-02T06:40:13;100636.34;;;10.59;81.69
12636;BME280;6383;50.830;7.210;2023-04-02T06:42:45;100641.78;;;10.59;81.38
12636;BME280;6383;50.830;7.210;2023-04-02T06:45:22;100650.47;;;10.61;81.07
12636;BME280;6383;50.830;7.210;2023-04-02T06:47:54;100653.19;;;10.61;80.70
12636;BME280;6383;50.830;7.210;2023-04-02T06:50:26;100664.09;;;10.61;81.29
12636;BME280;6383;50.830;7.210;2023-04-02T06:53:00;100661.88;;;10.63;80.50
12636;BME280;6383;50.830;7.210;2023-04-02T06:55:44;100668.41;;;10.62;80.65
12636;BME280;6383;50.830;7.210;2023-04-02T06:58:15;100676.59;;;10.62;81.10
12636;BME280;6383;50.830;7.210;2023-04-02T07:00:45;100683.66;;;10.63;80.30
12636;BME280;6383;50.830;7.210;2023-04-02T07:03:18;100681.72;;;10.64;80.87
12636;BME280;6383;50.830;7.210;2023-04-02T07:05:50;100697.25;;;10.63;80.17
12636;BME280;6383;50.830;7.210;2023-04-02T07:08:19;100702.69;;;10.63;80.48
12636;BME280;6383;50.830;7.210;2023-04-02T07:10:49;100716.00;;;10.65;80.66
12636;BME280;6383;50.830;7.210;2023-04-02T07:13:21;100717.94;;;10.64;81.03
12636;BME280;6383;50.830;7.210;2023-04-02T07:15:52;100717.69;;;10.60;80.31
12636;BME280;6383;50.830;7.210;2023-04-02T07:18:25;100725.34;;;10.58;80.45
12636;BME280;6383;50.830;7.210;2023-04-02T07:20:55;100732.41;;;10.59;80.48
12636;BME280;6383;50.830;7.210;2023-04-02T07:23:24;100743.47;;;10.68;80.64
12636;BME280;6383;50.830;7.210;2023-04-02T07:25:55;100744.22;;;10.69;79.29
12636;BME280;6383;50.830;7.210;2023-04-02T07:28:25;100752.91;;;10.71;79.16
12636;BME280;6383;50.830;7.210;2023-04-02T07:30:54;100751.63;;;10.68;79.74
12636;BME280;6383;50.830;7.210;2023-04-02T07:33:25;100763.47;;;10.58;79.78
12636;BME280;6383;50.830;7.210;2023-04-02T07:35:56;100773.00;;;10.56;80.14
12636;BME280;6383;50.830;7.210;2023-04-02T07:38:25;100774.13;;;10.55;79.60
12636;BME280;6383;50.830;7.210;2023-04-02T07:40:56;100776.53;;;10.56;79.35
12636;BME280;6383;50.830;7.210;2023-04-02T07:43:25;100782.50;;;10.58;79.38
12636;BME280;6383;50.830;7.210;2023-04-02T07:45:54;100783.84;;;10.61;79.16
12636;BME280;6383;50.830;7.210;2023-04-02T07:48:23;100789.34;;;10.56;78.64
12636;BME280;6383;50.830;7.210;2023-04-02T07:50:52;100800.31;;;10.51;79.34
12636;BME280;6383;50.830;7.210;2023-04-02T07:53:27;100803.56;;;10.53;79.65
12636;BME280;6383;50.830;7.210;2023-04-02T07:56:00;100817.59;;;10.60;78.80
12636;BME280;6383;50.830;7.210;2023-04-02T07:58:31;100818.41;;;10.60;78.46
12636;BME280;6383;50.830;7.210;2023-04-02T08:01:00;100821.94;;;10.61;77.73
12636;BME280;6383;50.830;7.210;2023-04-02T08:03:30;100830.97;;;10.56;78.39
12636;BME280;6383;50.830;7.210;2023-04-02T08:05:59;100835.31;;;10.57;78.74
12636;BME280;6383;50.830;7.210;2023-04-02T08:08:28;100843.78;;;10.56;78.12
12636;BME280;6383;50.830;7.210;2023-04-02T08:10:59;100842.16;;;10.55;77.80
12636;BME280;6383;50.830;7.210;2023-04-02T08:13:28;100847.09;;;10.53;78.31
12636;BME280;6383;50.830;7.210;2023-04-02T08:15:58;100853.66;;;10.52;78.21
12636;BME280;6383;50.830;7.210;2023-04-02T08:18:28;100862.91;;;10.51;77.59
12636;BME280;6383;50.830;7.210;2023-04-02T08:20:57;100865.69;;;10.46;77.15
12636;BME280;6383;50.830;7.210;2023-04-02T08:23:27;100870.59;;;10.44;76.73
12636;BME280;6383;50.830;7.210;2023-04-02T08:25:57;100877.97;;;10.43;77.12
12636;BME280;6383;50.830;7.210;2023-04-02T08:28:27;100884.78;;;10.41;76.98
12636;BME280;6383;50.830;7.210;2023-04-02T08:30:56;100883.69;;;10.42;76.90
12636;BME280;6383;50.830;7.210;2023-04-02T08:33:26;100895.91;;;10.44;77.74
12636;BME280;6383;50.830;7.210;2023-04-02T08:35:55;100899.72;;;10.43;77.64
12636;BME280;6383;50.830;7.210;2023-04-02T08:38:24;100904.06;;;10.44;76.87
12636;BME280;6383;50.830;7.210;2023-04-02T08:40:55;100909.22;;;10.46;77.41
12636;BME280;6383;50.830;7.210;2023-04-02T08:43:46;100910.84;;;10.47;76.97
12636;BME280;6383;50.830;7.210;2023-04-02T08:46:25;100916.28;;;10.47;77.13
12636;BME280;6383;50.830;7.210;2023-04-02T08:49:00;100928.28;;;10.46;76.75
12636;BME280;6383;50.830;7.210;2023-04-02T08:51:33;100933.72;;;10.46;76.65
12636;BME280;6383;50.830;7.210;2023-04-02T08:54:13;100934.25;;;10.48;76.69
12636;BME280;6383;50.830;7.210;2023-04-02T08:56:48;100950.28;;;10.49;77.05
12636;BME280;6383;50.830;7.210;2023-04-02T08:59:28;100947.78;;;10.53;76.86
12636;BME280;6383;50.830;7.210;2023-04-02T09:02:05;100958.97;;;10.51;76.96
12636;BME280;6383;50.830;7.210;2023-04-02T09:04:42;100963.88;;;10.49;77.05
12636;BME280;6383;50.830;7.210;2023-04-02T09:07:13;100966.91;;;10.48;76.96
12636;BME280;6383;50.830;7.210;2023-04-02T09:09:45;100968.00;;;10.47;76.26
12636;BME280;6383;50.830;7.210;2023-04-02T09:12:17;100978.06;;;10.46;75.74
12636;BME280;6383;50.830;7.210;2023-04-02T09:14:59;100984.03;;;10.48;76.16
12636;BME280;6383;50.830;7.210;2023-04-02T09:17:31;100989.19;;;10.50;76.70
12636;BME280;6383;50.830;7.210;2023-04-02T09:20:04;100995.16;;;10.52;75.43
12636;BME280;6383;50.830;7.210;2023-04-02T09:22:35;100994.91;;;10.48;75.00
12636;BME280;6383;50.830;7.210;2023-04-02T09:25:05;100998.44;;;10.49;75.14
12636;BME280;6383;50.830;7.210;2023-04-02T09:27:40;101007.44;;;10.49;75.19
12636;BME280;6383;50.830;7.210;2023-04-02T09:30:22;101009.63;;;10.47;74.95
12636;BME280;6383;50.830;7.210;2023-04-02T09:32:57;101012.09;;;10.44;74.89
12636;BME280;6383;50.830;7.210;2023-04-02T09:35:30;101019.75;;;10.42;74.02
12636;BME280;6383;50.830;7.210;2023-04-02T09:38:20;101027.91;;;10.42;74.95
12636;BME280;6383;50.830;7.210;2023-04-02T09:40:50;101036.88;;;10.42;74.43
12636;BME280;6383;50.830;7.210;2023-04-02T09:43:21;101033.06;;;10.43;75.00
12636;BME280;6383;50.830;7.210;2023-04-02T09:45:57;101039.19;;;10.54;74.54
12636;BME280;6383;50.830;7.210;2023-04-02T09:48:28;101043.84;;;10.53;74.29
12636;BME280;6383;50.830;7.210;2023-04-02T09:51:10;101049.31;;;10.53;73.61
12636;BME280;6383;50.830;7.210;2023-04-02T09:53:41;101055.53;;;10.54;74.06
12636;BME280;6383;50.830;7.210;2023-04-02T09:56:16;101064.00;;;10.52;73.56
12636;BME280;6383;50.830;7.210;2023-04-02T09:59:01;101068.84;;;10.55;74.58
12636;BME280;6383;50.830;7.210;2023-04-02T10:01:33;101074.94;;;10.47;74.49
12636;BME280;6383;50.830;7.210;2023-04-02T10:04:05;101082.81;;;10.49;74.34
12636;BME280;6383;50.830;7.210;2023-04-02T10:06:34;101083.34;;;10.51;74.99
12636;BME280;6383;50.830;7.210;2023-04-02T10:09:19;101094.44;;;10.54;74.09
12636;BME280;6383;50.830;7.210;2023-04-02T10:11:49;101095.56;;;10.53;74.39
12636;BME280;6383;50.830;7.210;2023-04-02T10:14:22;101106.16;;;10.55;74.60
12636;BME280;6383;50.830;7.210;2023-04-02T10:16:56;101109.97;;;10.54;74.48
12636;BME280;6383;50.830;7.210;2023-04-02T10:19:29;101120.34;;;10.52;74.00
12636;BME280;6383;50.830;7.210;2023-04-02T10:22:02;101126.59;;;10.52;73.42
12636;BME280;6383;50.830;7.210;2023-04-02T10:24:33;101128.16;;;10.58;72.34
12636;BME280;6383;50.830;7.210;2023-04-02T10:27:10;101133.59;;;10.58;72.72
12636;BME280;6383;50.830;7.210;2023-04-02T10:29:55;101134.69;;;10.57;72.46
12636;BME280;6383;50.830;7.210;2023-04-02T10:32:36;101144.25;;;10.55;71.75
12636;BME280;6383;50.830;7.210;2023-04-02T10:35:07;101148.03;;;10.59;72.97
12636;BME280;6383;50.830;7.210;2023-04-02T10:38:04;101160.56;;;10.55;72.06
12636;BME280;6383;50.830;7.210;2023-04-02T10:40:41;101163.00;;;10.56;73.33
12636;BME280;6383;50.830;7.210;2023-04-02T10:46:19;101162.72;;;10.58;71.98
12636;BME280;6383;50.830;7.210;2023-04-02T10:49:00;101171.44;;;10.60;72.62
12636;BME280;6383;50.830;7.210;2023-04-02T10:51:38;101175.25;;;10.59;72.59
12636;BME280;6383;50.830;7.210;2023-04-02T10:54:31;101171.44;;;10.60;71.63
12636;BME280;6383;50.830;7.210;2023-04-02T10:57:09;101183.69;;;10.57;72.38
12636;BME280;6383;50.830;7.210;2023-04-02T10:59:42;101183.41;;;10.59;71.55
12636;BME280;6383;50.830;7.210;2023-04-02T11:02:28;101185.56;;;10.62;71.77
12636;BME280;6383;50.830;7.210;2023-04-02T11:05:10;101190.97;;;10.67;72.51
12636;BME280;6383;50.830;7.210;2023-04-02T11:07:52;101196.13;;;10.69;72.56
12636;BME280;6383;50.830;7.210;2023-04-02T11:10:31;101198.06;;;10.68;71.95
12636;BME280;6383;50.830;7.210;2023-04-02T11:13:06;101208.06;;;10.73;73.01
12636;BME280;6383;50.830;7.210;2023-04-02T11:15:36;101218.94;;;10.78;71.71
12636;BME280;6383;50.830;7.210;2023-04-02T11:18:21;101213.94;;;10.85;72.09
12636;BME280;6383;50.830;7.210;2023-04-02T11:21:05;101226.19;;;10.87;71.97
12636;BME280;6383;50.830;7.210;2023-04-02T11:23:37;101230.78;;;10.92;72.76
12636;BME280;6383;50.830;7.210;2023-04-02T11:26:33;101229.34;;;11.00;71.55
12636;BME280;6383;50.830;7.210;2023-04-02T11:29:18;101239.38;;;11.04;71.63
12636;BME280;6383;50.830;7.210;2023-04-02T11:31:49;101234.19;;;11.08;72.16
12636;BME280;6383;50.830;7.210;2023-04-02T11:37:36;101241.50;;;11.12;70.65
12636;BME280;6383;50.830;7.210;2023-04-02T11:40:39;101244.72;;;11.14;69.89
12636;BME280;6383;50.830;7.210;2023-04-02T11:46:45;101264.03;;;11.18;69.80
12636;BME280;6383;50.830;7.210;2023-04-02T11:49:39;101268.44;;;11.14;69.51
12636;BME280;6383;50.830;7.210;2023-04-02T11:52:26;101275.03;;;11.08;68.93
12636;BME280;6383;50.830;7.210;2023-04-02T11:55:01;101275.31;;;11.06;69.85
12636;BME280;6383;50.830;7.210;2023-04-02T11:57:42;101284.34;;;11.02;69.49
12636;BME280;6383;50.830;7.210;2023-04-02T12:00:24;101281.69;;;10.97;69.20
12636;BME280;6383;50.830;7.210;2023-04-02T12:03:15;101289.84;;;10.97;68.69
12636;BME280;6383;50.830;7.210;2023-04-02T12:05:52;101286.59;;;10.94;69.69
12636;BME280;6383;50.830;7.210;2023-04-02T12:08:36;101281.44;;;10.93;69.06
12636;BME280;6383;50.830;7.210;2023-04-02T12:11:15;101281.19;;;10.89;68.20
12636;BME280;6383;50.830;7.210;2023-04-02T12:13:52;101291.25;;;10.89;68.06
12636;BME280;6383;50.830;7.210;2023-04-02T12:16:21;101290.47;;;10.83;67.72
12636;BME280;6383;50.830;7.210;2023-04-02T12:18:52;101303.81;;;10.85;67.75
12636;BME280;6383;50.830;7.210;2023-04-02T12:21:25;101305.72;;;10.84;67.74
12636;BME280;6383;50.830;7.210;2023-04-02T12:23:56;101307.88;;;10.87;68.11
12636;BME280;6383;50.830;7.210;2023-04-02T12:26:30;101313.84;;;10.89;68.58
12636;BME280;6383;50.830;7.210;2023-04-02T12:29:19;101314.94;;;10.93;68.40
12636;BME280;6383;50.830;7.210;2023-04-02T12:31:49;101311.91;;;10.95;67.58
12636;BME280;6383;50.830;7.210;2023-04-02T12:34:20;101319.81;;;10.97;67.92
12636;BME280;6383;50.830;7.210;2023-04-02T12:36:52;101319.22;;;11.00;68.40
12636;BME280;6383;50.830;7.210;2023-04-02T12:39:22;101330.34;;;11.03;67.67
12636;BME280;6383;50.830;7.210;2023-04-02T12:41:52;101324.63;;;11.05;68.43
12636;BME280;6383;50.830;7.210;2023-04-02T12:44:23;101327.88;;;11.07;67.64
12636;BME280;6383;50.830;7.210;2023-04-02T12:46:53;101331.16;;;11.09;67.76
12636;BME280;6383;50.830;7.210;2023-04-02T12:49:30;101338.22;;;11.10;67.43
12636;BME280;6383;50.830;7.210;2023-04-02T12:52:03;101334.94;;;11.13;67.74
12636;BME280;6383;50.830;7.210;2023-04-02T12:54:35;101337.66;;;11.13;67.00
12636;BME280;6383;50.830;7.210;2023-04-02T12:57:33;101340.31;;;11.18;67.76
12636;BME280;6383;50.830;7.210;2023-04-02T13:03:15;101344.16;;;11.17;66.68
12636;BME280;6383;50.830;7.210;2023-04-02T13:05:51;101352.31;;;11.17;66.42
12636;BME280;6383;50.830;7.210;2023-04-02T13:08:24;101353.41;;;11.16;67.01
12636;BME280;6383;50.830;7.210;2023-04-02T13:10:55;101358.03;;;11.15;66.82
12636;BME280;6383;50.830;7.210;2023-04-02T13:13:28;101363.22;;;11.17;66.78
12636;BME280;6383;50.830;7.210;2023-04-02T13:16:06;101367.84;;;11.16;66.75
12636;BME280;6383;50.830;7.210;2023-04-02T13:18:49;101365.69;;;11.13;66.15
12636;BME280;6383;50.830;7.210;2023-04-02T13:21:23;101377.72;;;11.12;65.93
12636;BME280;6383;50.830;7.210;2023-04-02T13:23:54;101376.91;;;11.12;65.61
12636;BME280;6383;50.830;7.210;2023-04-02T13:26:24;101374.16;;;11.12;65.73
12636;BME280;6383;50.830;7.210;2023-04-02T13:28:57;101370.63;;;11.11;66.54
12636;BME280;6383;50.830;7.210;2023-04-02T13:31:27;101379.09;;;11.10;66.38
12636;BME280;6383;50.830;7.210;2023-04-02T13:33:56;101379.91;;;11.10;66.14
12636;BME280;6383;50.830;7.210;2023-04-02T13:36:25;101374.19;;;11.07;65.71
12636;BME280;6383;50.830;7.210;2023-04-02T13:38:56;101385.38;;;11.05;65.10
12636;BME280;6383;50.830;7.210;2023-04-02T13:41:27;101381.84;;;11.05;65.38
12636;BME280;6383;50.830;7.210;2023-04-02T13:44:00;101392.72;;;11.05;65.40
12636;BME280;6383;50.830;7.210;2023-04-02T13:46:32;101399.56;;;11.02;65.47
12636;BME280;6383;50.830;7.210;2023-04-02T13:49:01;101400.38;;;11.03;65.33
12636;BME280;6383;50.830;7.210;2023-04-02T13:51:34;101401.19;;;11.03;65.84
12636;BME280;6383;50.830;7.210;2023-04-02T13:54:06;101399.28;;;11.04;65.30
12636;BME280;6383;50.830;7.210;2023-04-02T13:56:36;101404.19;;;11.02;65.21